Time;durP1;ratioP1;P1;durP2;ratioP2;P2;SDS_P1;SDS_P2;PMS_P1;PMS_P2;Temp;Humidity;BMP_temperature;BMP_pressure;BME280_temperature;BME280_humidity;BME280_pressure;Samples;Min_cycle;Max_cycle;Signal;HPM_P1;HPM_P2
2021/04/08 00:01:01;;;;;;;;;;;21.60;99.90;;;;;;5051299;28;19917;-84
2021/04/08 00:03:28;;;;;;;;;;;21.60;99.90;;;;;;5052393;28;20330;-80
2021/04/08 00:05:54;;;;;;;;;;;21.70;99.90;;;;;;5053451;28;19909;-80
2021/04/08 00:08:21;;;;;;;;;;;21.70;99.90;;;;;;5053432;28;19920;-84
2021/04/08 00:10:48;;;;;;;;;;;21.80;99.90;;;;;;5053456;28;19956;-81
2021/04/08 00:13:14;;;;;;;;;;;21.90;99.90;;;;;;5052823;28;20335;-85
2021/04/08 00:15:41;;;;;;;;;;;22.00;99.90;;;;;;5047153;28;19912;-82
2021/04/08 00:18:08;;;;;;;;;;;21.90;99.90;;;;;;5053499;28;19912;-79
2021/04/08 00:20:35;;;;;;;;;;;22.00;99.90;;;;;;5052299;28;19953;-83
2021/04/08 00:23:01;;;;;;;;;;;22.00;99.90;;;;;;5052026;28;19927;-82
2021/04/08 00:25:28;;;;;;;;;;;22.00;99.90;;;;;;5052652;28;19916;-83
2021/04/08 00:27:55;;;;;;;;;;;22.00;99.90;;;;;;5052146;28;20004;-84
2021/04/08 00:30:22;;;;;;;;;;;22.00;99.90;;;;;;5052422;28;20354;-84
2021/04/08 00:32:48;;;;;;;;;;;22.20;99.90;;;;;;5051966;28;19958;-81
2021/04/08 00:35:15;;;;;;;;;;;22.10;99.90;;;;;;5052796;28;19920;-83
2021/04/08 00:37:42;;;;;;;;;;;22.10;99.90;;;;;;5051205;28;19921;-84
2021/04/08 00:40:13;;;;;;;;;;;22.10;99.90;;;;;;5051984;28;19984;-79
2021/04/08 00:42:40;;;;;;;;;;;22.10;99.90;;;;;;5052812;28;19917;-84
2021/04/08 00:45:07;;;;;;;;;;;22.10;99.90;;;;;;5052200;28;19913;-83
2021/04/08 00:47:34;;;;;;;;;;;22.00;99.90;;;;;;5049479;28;19913;-85
2021/04/08 00:50:01;;;;;;;;;;;22.00;99.90;;;;;;5051099;28;19913;-85
2021/04/08 00:52:28;;;;;;;;;;;21.90;99.90;;;;;;5051319;28;19913;-85
2021/04/08 00:54:55;;;;;;;;;;;21.80;99.90;;;;;;5068185;28;20367;-85
2021/04/08 00:57:21;;;;;;;;;;;21.80;99.90;;;;;;5051406;28;20279;-85
2021/04/08 00:59:52;;;;;;;;;;;21.70;99.90;;;;;;5052933;28;19966;-84
2021/04/08 01:02:20;;;;;;;;;;;21.70;99.90;;;;;;5052222;28;19967;-85
2021/04/08 01:04:47;;;;;;;;;;;21.70;99.90;;;;;;5044214;28;20000;-83
2021/04/08 01:07:13;;;;;;;;;;;21.80;99.90;;;;;;5055112;28;19913;-83
2021/04/08 01:09:40;;;;;;;;;;;22.00;99.90;;;;;;5055460;28;19913;-85
2021/04/08 01:12:07;;;;;;;;;;;22.00;99.90;;;;;;5055025;28;20376;-83
2021/04/08 01:14:34;;;;;;;;;;;22.20;99.90;;;;;;5055324;28;19908;-84
2021/04/08 01:17:22;;;;;;;;;;;22.50;99.90;;;;;;5053568;28;19913;-80
2021/04/08 01:20:06;;;;;;;;;;;22.80;99.90;;;;;;5036302;28;20294;-87
2021/04/08 01:22:51;;;;;;;;;;;23.20;99.90;;;;;;5035700;28;19917;-87
2021/04/08 01:25:36;;;;;;;;;;;24.10;99.90;;;;;;5035651;28;19913;-83
2021/04/08 01:28:05;;;;;;;;;;;24.30;99.90;;;;;;5051462;28;19917;-85
2021/04/08 01:30:34;;;;;;;;;;;24.30;99.90;;;;;;5064706;28;19909;-84
2021/04/08 01:33:02;;;;;;;;;;;24.50;99.90;;;;;;5075551;28;19984;-86
2021/04/08 01:35:30;;;;;;;;;;;24.40;99.90;;;;;;5073356;28;19991;-83
2021/04/08 01:38:09;;;;;;;;;;;24.20;99.90;;;;;;5064340;28;19909;-88
2021/04/08 01:40:36;;;;;;;;;;;24.10;99.90;;;;;;5071506;28;19909;-84
2021/04/08 01:43:04;;;;;;;;;;;24.00;99.90;;;;;;5072311;28;19916;-86
2021/04/08 01:45:31;;;;;;;;;;;24.00;99.90;;;;;;5056315;28;19920;-87
2021/04/08 01:47:59;;;;;;;;;;;23.90;99.90;;;;;;5055252;28;19909;-88
2021/04/08 01:50:26;;;;;;;;;;;23.90;99.90;;;;;;5055574;28;19946;-88
2021/04/08 01:52:54;;;;;;;;;;;23.90;99.90;;;;;;5051349;28;19912;-85
2021/04/08 01:55:24;;;;;;;;;;;24.00;99.90;;;;;;5076130;28;19905;-83
2021/04/08 01:57:52;;;;;;;;;;;24.00;99.90;;;;;;5065025;28;19912;-85
2021/04/08 02:00:20;;;;;;;;;;;24.00;99.90;;;;;;5058858;28;19924;-85
2021/04/08 02:02:47;;;;;;;;;;;23.90;99.90;;;;;;5053411;28;19925;-86
2021/04/08 02:05:15;;;;;;;;;;;23.90;99.90;;;;;;5054689;28;19974;-83
2021/04/08 02:07:52;;;;;;;;;;;23.90;99.90;;;;;;5055037;28;19966;-86
2021/04/08 02:10:19;;;;;;;;;;;23.80;99.90;;;;;;5054038;28;19916;-86
2021/04/08 02:12:47;;;;;;;;;;;23.70;99.90;;;;;;5054817;28;19916;-87
2021/04/08 02:15:14;;;;;;;;;;;23.60;99.90;;;;;;5055144;28;19909;-84
2021/04/08 02:17:42;;;;;;;;;;;23.50;99.90;;;;;;5055181;28;19959;-83
2021/04/08 02:20:09;;;;;;;;;;;23.40;99.90;;;;;;5052518;28;19995;-80
2021/04/08 02:22:38;;;;;;;;;;;23.30;99.90;;;;;;5054799;28;19975;-83
2021/04/08 02:25:06;;;;;;;;;;;23.30;99.90;;;;;;5053098;28;19959;-81
2021/04/08 02:27:34;;;;;;;;;;;23.20;99.90;;;;;;5054771;28;19909;-79
2021/04/08 02:30:01;;;;;;;;;;;23.20;99.90;;;;;;5054527;28;19921;-81
2021/04/08 02:32:29;;;;;;;;;;;23.30;99.90;;;;;;5054972;28;19909;-85
2021/04/08 02:34:56;;;;;;;;;;;23.10;99.90;;;;;;5054947;28;20269;-83
2021/04/08 02:37:23;;;;;;;;;;;23.10;99.90;;;;;;5070006;28;19908;-79
2021/04/08 02:39:49;;;;;;;;;;;23.20;99.90;;;;;;5072697;28;19913;-85
2021/04/08 02:42:16;;;;;;;;;;;23.20;99.90;;;;;;5054583;28;19924;-83
2021/04/08 02:44:43;;;;;;;;;;;23.30;99.90;;;;;;5054178;28;19917;-81
2021/04/08 02:47:09;;;;;;;;;;;23.40;99.90;;;;;;5055408;28;19909;-83
2021/04/08 02:49:37;;;;;;;;;;;23.40;99.90;;;;;;5053577;28;19925;-82
2021/04/08 02:52:05;;;;;;;;;;;23.40;99.90;;;;;;5055196;28;20272;-84
2021/04/08 02:54:32;;;;;;;;;;;23.30;99.90;;;;;;5054364;28;19923;-86
2021/04/08 02:57:00;;;;;;;;;;;23.30;99.90;;;;;;5054537;28;19913;-82
2021/04/08 02:59:31;;;;;;;;;;;23.40;99.90;;;;;;5053610;28;19921;-82
2021/04/08 03:02:06;;;;;;;;;;;23.40;99.90;;;;;;5047054;28;20043;-85
2021/04/08 03:04:36;;;;;;;;;;;23.40;99.90;;;;;;5052819;28;19909;-82
2021/04/08 03:07:04;;;;;;;;;;;23.40;99.90;;;;;;5053214;28;19913;-82
2021/04/08 03:09:36;;;;;;;;;;;23.30;99.90;;;;;;5052836;28;20268;-85
2021/04/08 03:12:07;;;;;;;;;;;23.40;99.90;;;;;;5050718;28;20344;-82
2021/04/08 03:14:35;;;;;;;;;;;23.40;99.90;;;;;;5052022;28;19938;-88
2021/04/08 03:17:02;;;;;;;;;;;23.40;99.90;;;;;;5052339;28;19913;-84
2021/04/08 03:19:30;;;;;;;;;;;23.40;99.90;;;;;;5049912;28;19909;-82
2021/04/08 03:21:57;;;;;;;;;;;23.50;99.90;;;;;;5052628;28;20391;-86
2021/04/08 03:24:24;;;;;;;;;;;23.40;99.90;;;;;;5058705;28;19913;-85
2021/04/08 03:26:51;;;;;;;;;;;23.40;99.90;;;;;;5063048;28;19959;-83
2021/04/08 03:29:18;;;;;;;;;;;23.50;99.90;;;;;;5062743;28;19913;-81
2021/04/08 03:31:46;;;;;;;;;;;23.50;99.90;;;;;;5045463;28;19917;-83
2021/04/08 03:34:13;;;;;;;;;;;23.50;99.90;;;;;;5031754;28;19949;-82
2021/04/08 03:36:40;;;;;;;;;;;23.50;99.90;;;;;;5044427;28;19966;-79
2021/04/08 03:39:07;;;;;;;;;;;23.50;99.90;;;;;;5050637;28;19942;-81
2021/04/08 03:41:38;;;;;;;;;;;23.40;99.90;;;;;;5050589;28;19947;-79
2021/04/08 03:44:07;;;;;;;;;;;23.40;99.90;;;;;;5050601;28;19908;-80
2021/04/08 03:46:37;;;;;;;;;;;23.30;99.90;;;;;;5050776;28;19912;-80
2021/04/08 03:49:07;;;;;;;;;;;23.30;99.90;;;;;;5050500;28;19920;-84
2021/04/08 03:51:34;;;;;;;;;;;23.30;99.90;;;;;;5051245;28;19916;-82
2021/04/08 03:54:06;;;;;;;;;;;23.40;99.90;;;;;;5050154;28;19917;-83
2021/04/08 03:56:38;;;;;;;;;;;23.30;99.90;;;;;;5050644;28;20383;-82
2021/04/08 03:59:05;;;;;;;;;;;23.30;99.90;;;;;;5050106;28;19994;-85
2021/04/08 04:01:32;;;;;;;;;;;23.30;99.90;;;;;;5049762;28;19913;-83
2021/04/08 04:04:00;;;;;;;;;;;23.30;99.90;;;;;;5049784;28;19925;-82
2021/04/08 04:06:27;;;;;;;;;;;23.20;99.90;;;;;;5050564;28;20287;-82
2021/04/08 04:08:54;;;;;;;;;;;23.20;99.90;;;;;;5050153;28;20526;-83
2021/04/08 04:11:21;;;;;;;;;;;23.30;99.90;;;;;;5049730;28;20266;-83
2021/04/08 04:13:49;;;;;;;;;;;23.30;99.90;;;;;;5050665;28;19921;-81
2021/04/08 04:16:17;;;;;;;;;;;23.30;99.90;;;;;;5050997;28;19916;-82
2021/04/08 04:18:43;;;;;;;;;;;23.40;99.90;;;;;;5051108;28;19912;-80
2021/04/08 04:21:10;;;;;;;;;;;23.30;99.90;;;;;;5050686;28;19948;-81
2021/04/08 04:23:37;;;;;;;;;;;23.30;99.90;;;;;;5049712;28;19927;-83
2021/04/08 04:26:04;;;;;;;;;;;23.40;99.90;;;;;;5050495;28;19931;-80
2021/04/08 04:28:31;;;;;;;;;;;23.40;99.90;;;;;;5050467;28;19909;-82
2021/04/08 04:30:57;;;;;;;;;;;23.50;99.90;;;;;;5060937;28;19955;-81
2021/04/08 04:33:24;;;;;;;;;;;23.60;99.90;;;;;;5070455;28;19983;-83
2021/04/08 04:35:52;;;;;;;;;;;23.50;99.90;;;;;;5057205;28;19913;-81
2021/04/08 04:38:19;;;;;;;;;;;23.50;99.90;;;;;;5056757;28;19913;-80
2021/04/08 04:40:46;;;;;;;;;;;23.50;99.90;;;;;;5054241;28;19912;-81
2021/04/08 04:43:12;;;;;;;;;;;23.50;99.90;;;;;;5054615;28;19917;-81
2021/04/08 04:45:39;;;;;;;;;;;23.40;99.90;;;;;;5054553;28;19908;-82
2021/04/08 04:48:06;;;;;;;;;;;23.40;99.90;;;;;;5055423;28;20426;-82
2021/04/08 04:50:40;;;;;;;;;;;23.40;99.90;;;;;;5054749;28;19920;-83
2021/04/08 04:53:07;;;;;;;;;;;23.30;99.90;;;;;;5075823;28;19922;-79
2021/04/08 04:55:34;;;;;;;;;;;23.40;99.90;;;;;;5067589;28;19963;-80
2021/04/08 04:58:00;;;;;;;;;;;23.30;99.90;;;;;;5053761;28;19932;-81
2021/04/08 05:00:27;;;;;;;;;;;23.20;99.90;;;;;;5054216;28;19916;-80
2021/04/08 05:02:55;;;;;;;;;;;23.20;99.90;;;;;;5052688;28;20394;-79
2021/04/08 05:05:22;;;;;;;;;;;23.20;99.90;;;;;;5054671;28;19917;-80
2021/04/08 05:07:49;;;;;;;;;;;23.10;99.90;;;;;;5054157;28;19970;-82
2021/04/08 05:10:15;;;;;;;;;;;23.10;99.90;;;;;;5055871;28;19912;-81
2021/04/08 05:12:43;;;;;;;;;;;23.10;99.90;;;;;;5063769;28;19968;-81
2021/04/08 05:15:10;;;;;;;;;;;23.10;99.90;;;;;;5056817;28;20331;-81
2021/04/08 05:17:36;;;;;;;;;;;23.10;99.90;;;;;;5055684;28;20367;-80
2021/04/08 05:20:04;;;;;;;;;;;23.10;99.90;;;;;;5055937;28;19908;-79
2021/04/08 05:22:31;;;;;;;;;;;23.20;99.90;;;;;;5055742;28;19967;-79
2021/04/08 05:24:57;;;;;;;;;;;23.20;99.90;;;;;;5056256;28;19916;-78
2021/04/08 05:27:24;;;;;;;;;;;23.20;99.90;;;;;;5054389;28;19935;-81
2021/04/08 05:29:51;;;;;;;;;;;23.10;99.90;;;;;;5054620;28;20387;-80
2021/04/08 05:32:17;;;;;;;;;;;23.10;99.90;;;;;;5053651;28;19920;-77
2021/04/08 05:34:44;;;;;;;;;;;23.10;99.90;;;;;;5053774;28;19917;-79
2021/04/08 05:37:11;;;;;;;;;;;23.00;99.90;;;;;;5053917;28;19967;-80
2021/04/08 05:39:37;;;;;;;;;;;23.00;99.90;;;;;;5054065;28;19916;-80
2021/04/08 05:42:04;;;;;;;;;;;23.00;99.90;;;;;;5053345;28;19917;-79
2021/04/08 05:44:31;;;;;;;;;;;23.00;99.90;;;;;;5052111;28;19913;-81
2021/04/08 05:46:58;;;;;;;;;;;23.10;99.90;;;;;;5054077;28;19913;-80
2021/04/08 05:49:25;;;;;;;;;;;23.00;99.90;;;;;;5053634;28;19912;-84
2021/04/08 05:51:52;;;;;;;;;;;23.00;99.90;;;;;;5053531;28;19913;-81
2021/04/08 05:54:18;;;;;;;;;;;22.90;99.90;;;;;;5053667;28;19913;-82
2021/04/08 05:56:46;;;;;;;;;;;22.90;99.90;;;;;;5052635;28;19917;-81
2021/04/08 05:59:13;;;;;;;;;;;22.90;99.90;;;;;;5053029;28;19999;-81
2021/04/08 06:01:39;;;;;;;;;;;22.80;99.90;;;;;;5053650;28;19927;-82
2021/04/08 06:04:06;;;;;;;;;;;22.80;99.90;;;;;;5053185;28;19917;-82
2021/04/08 06:06:33;;;;;;;;;;;22.80;99.90;;;;;;5053094;28;19913;-81
2021/04/08 06:08:59;;;;;;;;;;;22.80;99.90;;;;;;5052332;28;20015;-79
2021/04/08 06:11:26;;;;;;;;;;;22.80;99.90;;;;;;5052983;28;20260;-79
2021/04/08 06:13:53;;;;;;;;;;;22.90;99.90;;;;;;5053314;28;19916;-81
2021/04/08 06:16:19;;;;;;;;;;;22.80;99.90;;;;;;5050062;28;20143;-80
2021/04/08 06:18:49;;;;;;;;;;;22.80;99.90;;;;;;5048735;28;19924;-82
2021/04/08 06:21:19;;;;;;;;;;;22.80;99.90;;;;;;5051989;28;19920;-78
2021/04/08 06:23:45;;;;;;;;;;;22.70;99.90;;;;;;5042709;28;19956;-80
2021/04/08 06:26:12;;;;;;;;;;;22.70;99.90;;;;;;5054247;28;19909;-79
2021/04/08 06:28:38;;;;;;;;;;;22.70;99.90;;;;;;5051248;28;19909;-80
2021/04/08 06:31:05;;;;;;;;;;;22.60;99.90;;;;;;5051542;28;19925;-80
2021/04/08 06:33:32;;;;;;;;;;;22.60;99.90;;;;;;5052549;28;19913;-80
2021/04/08 06:36:03;;;;;;;;;;;22.50;99.90;;;;;;5052239;28;19936;-81
2021/04/08 06:38:32;;;;;;;;;;;22.50;99.90;;;;;;5052577;28;19956;-79
2021/04/08 06:41:00;;;;;;;;;;;22.50;99.90;;;;;;5052772;28;19913;-79
2021/04/08 06:43:29;;;;;;;;;;;22.50;99.90;;;;;;5052053;28;19920;-82
2021/04/08 06:45:57;;;;;;;;;;;22.40;99.90;;;;;;5052719;28;19913;-83
2021/04/08 06:48:30;;;;;;;;;;;22.40;99.90;;;;;;5052187;28;19932;-82
2021/04/08 06:50:58;;;;;;;;;;;22.30;99.90;;;;;;5052628;28;19917;-82
2021/04/08 06:53:25;;;;;;;;;;;22.30;99.90;;;;;;5052226;28;19916;-81
2021/04/08 06:55:52;;;;;;;;;;;22.30;99.90;;;;;;5051790;28;20537;-83
2021/04/08 06:58:19;;;;;;;;;;;22.20;99.90;;;;;;5049765;28;19919;-83
2021/04/08 07:00:46;;;;;;;;;;;22.20;99.90;;;;;;5050446;28;19938;-81
2021/04/08 07:03:13;;;;;;;;;;;22.20;99.90;;;;;;5049923;28;19920;-83
2021/04/08 07:05:39;;;;;;;;;;;22.10;99.90;;;;;;5065866;28;19919;-82
2021/04/08 07:08:06;;;;;;;;;;;22.10;99.90;;;;;;5050521;28;19982;-79
2021/04/08 07:10:33;;;;;;;;;;;22.10;99.90;;;;;;5050534;28;19966;-83
2021/04/08 07:12:59;;;;;;;;;;;22.00;99.90;;;;;;5052648;28;20004;-80
2021/04/08 07:15:26;;;;;;;;;;;22.00;99.90;;;;;;5054290;28;19998;-81
2021/04/08 07:17:53;;;;;;;;;;;22.00;99.90;;;;;;5053938;28;20036;-82
2021/04/08 07:20:19;;;;;;;;;;;21.90;99.90;;;;;;5054592;28;19955;-80
2021/04/08 07:22:46;;;;;;;;;;;21.90;99.90;;;;;;5055905;28;20395;-80
2021/04/08 07:25:14;;;;;;;;;;;21.90;99.90;;;;;;5054368;28;20004;-79
2021/04/08 07:27:40;;;;;;;;;;;21.90;99.90;;;;;;5053679;28;19954;-78
2021/04/08 07:30:12;;;;;;;;;;;21.80;99.90;;;;;;5053532;28;19964;-79
2021/04/08 07:32:39;;;;;;;;;;;21.80;99.90;;;;;;5054031;28;19909;-79
2021/04/08 07:35:12;;;;;;;;;;;21.80;99.90;;;;;;5054177;28;20011;-81
2021/04/08 07:37:39;;;;;;;;;;;21.70;99.90;;;;;;5054164;28;19999;-83
2021/04/08 07:40:15;;;;;;;;;;;21.80;99.90;;;;;;5052845;28;20475;-78
2021/04/08 07:42:41;;;;;;;;;;;21.80;99.90;;;;;;5051254;28;20287;-82
2021/04/08 07:45:08;;;;;;;;;;;21.70;99.90;;;;;;5051517;28;19913;-79
2021/04/08 07:47:36;;;;;;;;;;;21.70;99.90;;;;;;5051338;28;20256;-81
2021/04/08 07:50:05;;;;;;;;;;;21.70;99.90;;;;;;5051342;28;19940;-81
2021/04/08 07:52:32;;;;;;;;;;;21.70;99.90;;;;;;5050616;28;19913;-79
2021/04/08 07:55:01;;;;;;;;;;;21.70;99.90;;;;;;5049147;28;20371;-80
2021/04/08 07:57:29;;;;;;;;;;;21.60;99.90;;;;;;5057030;28;19920;-79
2021/04/08 07:59:56;;;;;;;;;;;21.60;99.90;;;;;;5058995;28;19912;-80
2021/04/08 08:02:24;;;;;;;;;;;21.60;99.90;;;;;;5056580;28;19924;-79
2021/04/08 08:04:51;;;;;;;;;;;21.60;99.90;;;;;;5052390;28;19916;-79
2021/04/08 08:07:27;;;;;;;;;;;21.60;99.90;;;;;;5053503;28;19912;-78
2021/04/08 08:09:54;;;;;;;;;;;21.50;99.90;;;;;;5051909;28;19943;-79
2021/04/08 08:12:22;;;;;;;;;;;21.60;99.90;;;;;;5052283;28;19931;-81
2021/04/08 08:14:49;;;;;;;;;;;21.50;99.90;;;;;;5053039;28;19909;-82
2021/04/08 08:17:15;;;;;;;;;;;21.50;99.90;;;;;;5053034;28;19959;-84
2021/04/08 08:19:44;;;;;;;;;;;21.50;99.90;;;;;;5051798;28;20027;-80
2021/04/08 08:22:19;;;;;;;;;;;21.50;99.90;;;;;;5052139;28;19996;-81
2021/04/08 08:24:59;;;;;;;;;;;21.50;99.90;;;;;;5051869;28;19913;-82
2021/04/08 08:27:42;;;;;;;;;;;21.50;99.90;;;;;;5051313;28;20553;-80
2021/04/08 08:30:10;;;;;;;;;;;21.50;99.90;;;;;;5050059;28;19928;-81
2021/04/08 08:32:37;;;;;;;;;;;21.40;99.90;;;;;;5050228;28;20371;-82
2021/04/08 08:35:05;;;;;;;;;;;21.40;99.90;;;;;;5048736;28;19917;-82
2021/04/08 08:37:32;;;;;;;;;;;21.40;99.90;;;;;;5051208;28;20006;-83
2021/04/08 08:40:00;;;;;;;;;;;21.30;99.90;;;;;;5051424;28;19909;-81
2021/04/08 08:42:27;;;;;;;;;;;21.30;99.90;;;;;;5050276;28;19924;-81
2021/04/08 08:44:54;;;;;;;;;;;21.30;99.90;;;;;;5050137;28;19916;-84
2021/04/08 08:47:26;;;;;;;;;;;21.30;99.90;;;;;;5048952;28;20259;-81
2021/04/08 08:49:58;;;;;;;;;;;21.30;99.90;;;;;;5050096;28;20330;-80
2021/04/08 08:52:30;;;;;;;;;;;21.20;99.90;;;;;;5051157;28;19913;-82
2021/04/08 08:54:57;;;;;;;;;;;21.20;99.90;;;;;;5050429;28;20000;-82
2021/04/08 08:57:25;;;;;;;;;;;21.20;99.90;;;;;;5050395;28;19909;-82
2021/04/08 08:59:51;;;;;;;;;;;21.20;99.90;;;;;;5050195;28;19919;-83
2021/04/08 09:02:19;;;;;;;;;;;21.20;99.90;;;;;;5050422;28;19971;-81
2021/04/08 09:04:46;;;;;;;;;;;21.20;99.90;;;;;;5065839;28;19912;-80
2021/04/08 09:07:13;;;;;;;;;;;21.20;99.90;;;;;;5052395;28;19932;-80
2021/04/08 09:09:49;;;;;;;;;;;21.20;99.90;;;;;;5052248;28;19909;-81
2021/04/08 09:12:18;;;;;;;;;;;21.20;99.90;;;;;;5052409;28;20314;-81
2021/04/08 09:14:45;;;;;;;;;;;21.10;99.90;;;;;;5052359;28;19919;-81
2021/04/08 09:17:13;;;;;;;;;;;21.10;99.90;;;;;;5052421;28;19912;-81
2021/04/08 09:19:40;;;;;;;;;;;21.10;99.90;;;;;;5052840;28;19954;-82
2021/04/08 09:22:08;;;;;;;;;;;21.00;99.90;;;;;;5055829;28;19924;-80
2021/04/08 09:24:44;;;;;;;;;;;21.00;99.90;;;;;;5053777;28;19913;-84
2021/04/08 09:27:11;;;;;;;;;;;21.00;99.90;;;;;;5054617;28;19916;-80
2021/04/08 09:29:41;;;;;;;;;;;21.00;99.90;;;;;;5055828;28;19917;-81
2021/04/08 09:32:26;;;;;;;;;;;21.00;99.90;;;;;;5055837;28;19916;-84
2021/04/08 09:35:05;;;;;;;;;;;21.00;99.90;;;;;;5055857;28;19948;-82
2021/04/08 09:37:47;;;;;;;;;;;20.90;99.90;;;;;;5055645;28;19916;-81
2021/04/08 09:40:23;;;;;;;;;;;21.00;99.90;;;;;;5055264;28;19962;-81
2021/04/08 09:42:51;;;;;;;;;;;20.90;99.90;;;;;;5055396;28;19917;-81
2021/04/08 09:45:18;;;;;;;;;;;21.00;99.90;;;;;;5055500;28;19944;-83
2021/04/08 09:47:45;;;;;;;;;;;20.90;99.90;;;;;;5055544;28;20363;-82
2021/04/08 09:50:31;;;;;;;;;;;21.00;99.90;;;;;;5055533;28;19954;-82
2021/04/08 09:52:58;;;;;;;;;;;21.00;99.90;;;;;;5055401;28;20275;-82
2021/04/08 09:55:34;;;;;;;;;;;21.00;99.90;;;;;;5054949;28;19908;-82
2021/04/08 09:58:02;;;;;;;;;;;20.90;99.90;;;;;;5055364;28;19920;-84
2021/04/08 10:00:28;;;;;;;;;;;20.90;99.90;;;;;;5055181;28;19909;-82
2021/04/08 10:02:56;;;;;;;;;;;20.90;99.90;;;;;;5055340;28;19921;-81
2021/04/08 10:05:23;;;;;;;;;;;20.80;99.90;;;;;;5055184;28;19995;-83
2021/04/08 10:07:54;;;;;;;;;;;20.80;99.90;;;;;;5055141;28;19909;-84
2021/04/08 10:10:22;;;;;;;;;;;20.80;99.90;;;;;;5054203;28;19936;-81
2021/04/08 10:12:49;;;;;;;;;;;20.90;99.90;;;;;;5054762;28;19909;-82
2021/04/08 10:15:17;;;;;;;;;;;20.80;99.90;;;;;;5055761;28;20004;-83
2021/04/08 10:17:43;;;;;;;;;;;20.80;99.90;;;;;;5054914;28;20368;-82
2021/04/08 10:20:10;;;;;;;;;;;20.70;99.90;;;;;;5055696;28;20325;-84
2021/04/08 10:22:45;;;;;;;;;;;20.70;99.90;;;;;;5054760;28;20359;-84
2021/04/08 10:25:12;;;;;;;;;;;20.70;99.90;;;;;;5052947;28;19989;-84
2021/04/08 10:27:41;;;;;;;;;;;20.70;99.90;;;;;;5054881;28;19909;-84
2021/04/08 10:30:12;;;;;;;;;;;20.80;99.90;;;;;;5054805;28;20367;-84
2021/04/08 10:32:39;;;;;;;;;;;20.70;99.90;;;;;;5053698;28;19962;-85
2021/04/08 10:35:17;;;;;;;;;;;20.70;99.90;;;;;;5054816;28;19909;-84
2021/04/08 10:37:44;;;;;;;;;;;20.70;99.90;;;;;;5055020;28;20314;-84
2021/04/08 10:40:12;;;;;;;;;;;20.70;99.90;;;;;;5054202;28;19909;-83
2021/04/08 10:42:39;;;;;;;;;;;20.70;99.90;;;;;;5054649;28;19917;-86
2021/04/08 10:45:09;;;;;;;;;;;20.60;99.90;;;;;;5054832;28;19991;-82
2021/04/08 10:47:37;;;;;;;;;;;20.60;99.90;;;;;;5054784;28;20008;-83
2021/04/08 10:50:04;;;;;;;;;;;20.60;99.90;;;;;;5054774;28;19916;-85
2021/04/08 10:52:32;;;;;;;;;;;20.60;99.90;;;;;;5055063;28;19931;-83
2021/04/08 10:55:04;;;;;;;;;;;20.50;99.90;;;;;;5054582;28;20327;-84
2021/04/08 10:57:31;;;;;;;;;;;20.50;99.90;;;;;;5055557;28;20279;-83
2021/04/08 11:00:01;;;;;;;;;;;20.50;99.90;;;;;;5055576;28;19909;-84
2021/04/08 11:02:32;;;;;;;;;;;20.40;99.90;;;;;;5054021;28;19913;-82
2021/04/08 11:05:02;;;;;;;;;;;20.40;99.90;;;;;;5054662;28;19932;-80
2021/04/08 11:07:35;;;;;;;;;;;20.40;99.90;;;;;;5054413;28;19909;-82
2021/04/08 11:10:15;;;;;;;;;;;20.30;99.90;;;;;;5054443;28;19909;-83
2021/04/08 11:12:42;;;;;;;;;;;20.30;99.90;;;;;;5053289;28;19909;-81
2021/04/08 11:15:11;;;;;;;;;;;20.30;99.90;;;;;;5054961;28;19912;-82
2021/04/08 11:17:40;;;;;;;;;;;20.20;99.90;;;;;;5055073;28;19909;-84
2021/04/08 11:20:07;;;;;;;;;;;20.30;99.90;;;;;;5054275;28;19913;-80
2021/04/08 11:22:34;;;;;;;;;;;20.20;99.90;;;;;;5054486;28;19970;-79
2021/04/08 11:25:07;;;;;;;;;;;20.20;99.90;;;;;;5053874;28;19908;-82
2021/04/08 11:27:53;;;;;;;;;;;20.20;99.90;;;;;;5055404;28;20368;-84
2021/04/08 11:30:22;;;;;;;;;;;20.30;99.90;;;;;;5059716;28;20011;-80
2021/04/08 11:33:29;;;;;;;;;;;20.30;99.90;;;;;;5058822;28;20348;-83
2021/04/08 11:35:57;;;;;;;;;;;20.30;99.90;;;;;;5061129;28;20045;-79
2021/04/08 11:38:24;;;;;;;;;;;20.20;99.90;;;;;;5057554;28;19980;-84
2021/04/08 11:41:11;;;;;;;;;;;20.20;99.90;;;;;;5053095;28;19909;-80
2021/04/08 11:43:41;;;;;;;;;;;20.30;99.90;;;;;;5053484;28;19924;-87
2021/04/08 11:46:27;;;;;;;;;;;20.20;99.90;;;;;;5053355;28;19909;-83
2021/04/08 11:48:54;;;;;;;;;;;20.20;99.90;;;;;;5054047;28;19909;-82
2021/04/08 11:51:25;;;;;;;;;;;20.20;99.90;;;;;;5053817;28;19916;-79
2021/04/08 11:53:52;;;;;;;;;;;20.10;99.90;;;;;;5053178;28;19909;-79
2021/04/08 11:56:32;;;;;;;;;;;20.10;99.90;;;;;;5053238;28;19959;-80
2021/04/08 11:59:07;;;;;;;;;;;20.10;99.90;;;;;;5053076;28;19909;-80
2021/04/08 12:01:39;;;;;;;;;;;20.10;99.90;;;;;;5053879;28;19908;-79
2021/04/08 12:04:12;;;;;;;;;;;20.10;99.90;;;;;;5054475;28;19909;-81
2021/04/08 12:06:46;;;;;;;;;;;20.20;99.90;;;;;;5053875;28;19913;-87
2021/04/08 12:09:13;;;;;;;;;;;20.10;99.90;;;;;;5053354;28;19916;-83
2021/04/08 12:11:48;;;;;;;;;;;20.10;99.90;;;;;;5054304;28;19915;-81
2021/04/08 12:14:15;;;;;;;;;;;20.10;99.90;;;;;;5054156;28;20012;-84
2021/04/08 12:16:42;;;;;;;;;;;20.10;99.90;;;;;;5053609;28;19909;-86
2021/04/08 12:19:09;;;;;;;;;;;20.20;99.90;;;;;;5055138;28;20416;-81
2021/04/08 12:21:35;;;;;;;;;;;20.20;99.90;;;;;;5056371;28;19978;-83
2021/04/08 12:24:09;;;;;;;;;;;20.20;99.90;;;;;;5054406;28;19924;-81
2021/04/08 12:26:38;;;;;;;;;;;20.10;99.90;;;;;;5054423;28;19909;-83
2021/04/08 12:29:05;;;;;;;;;;;20.10;99.90;;;;;;5054752;28;19925;-81
2021/04/08 12:31:32;;;;;;;;;;;20.10;99.90;;;;;;5057294;28;19952;-80
2021/04/08 12:33:58;;;;;;;;;;;20.10;99.90;;;;;;5056423;28;19968;-82
2021/04/08 12:36:26;;;;;;;;;;;20.10;99.90;;;;;;5054652;28;19998;-82
2021/04/08 12:38:52;;;;;;;;;;;20.10;99.90;;;;;;5068495;28;19916;-81
2021/04/08 12:41:19;;;;;;;;;;;20.00;99.90;;;;;;5056262;28;19957;-80
2021/04/08 12:43:46;;;;;;;;;;;20.00;99.90;;;;;;5054138;28;19917;-81
2021/04/08 12:46:13;;;;;;;;;;;20.00;99.90;;;;;;5054644;28;19909;-80
2021/04/08 12:48:39;;;;;;;;;;;20.00;99.90;;;;;;5053953;28;19963;-80
2021/04/08 12:51:06;;;;;;;;;;;20.00;99.90;;;;;;5053770;28;19909;-82
2021/04/08 12:53:33;;;;;;;;;;;20.00;99.90;;;;;;5053684;28;19934;-82
2021/04/08 12:55:59;;;;;;;;;;;20.00;99.90;;;;;;5057135;28;20004;-81
2021/04/08 12:58:26;;;;;;;;;;;20.00;99.90;;;;;;5058082;28;20371;-81
2021/04/08 13:00:53;;;;;;;;;;;20.00;99.90;;;;;;5057699;28;19908;-80
2021/04/08 13:03:19;;;;;;;;;;;20.00;99.90;;;;;;5058374;28;19983;-82
2021/04/08 13:05:48;;;;;;;;;;;20.00;99.90;;;;;;5058600;28;19909;-81
2021/04/08 13:08:24;;;;;;;;;;;20.00;99.90;;;;;;5058438;28;19909;-79
2021/04/08 13:10:51;;;;;;;;;;;20.00;99.90;;;;;;5056112;28;20355;-80
2021/04/08 13:13:18;;;;;;;;;;;20.00;99.90;;;;;;5053415;28;19912;-79
2021/04/08 13:15:44;;;;;;;;;;;20.00;99.90;;;;;;5052548;28;19921;-81
2021/04/08 13:18:12;;;;;;;;;;;20.00;99.90;;;;;;5055564;28;20291;-79
2021/04/08 13:20:38;;;;;;;;;;;20.00;99.90;;;;;;5054359;28;19982;-79
2021/04/08 13:23:06;;;;;;;;;;;20.00;99.90;;;;;;5053513;28;19967;-79
2021/04/08 13:25:33;;;;;;;;;;;19.90;99.90;;;;;;5052733;28;19920;-79
2021/04/08 13:28:00;;;;;;;;;;;20.00;99.90;;;;;;5053836;28;19943;-79
2021/04/08 13:30:30;;;;;;;;;;;20.00;99.90;;;;;;5054091;28;19928;-80
2021/04/08 13:32:58;;;;;;;;;;;19.90;99.90;;;;;;5061768;28;19971;-81
2021/04/08 13:35:26;;;;;;;;;;;19.90;99.90;;;;;;5053751;28;19913;-79
2021/04/08 13:37:54;;;;;;;;;;;19.90;99.90;;;;;;5070382;28;19913;-80
2021/04/08 13:40:23;;;;;;;;;;;19.90;99.90;;;;;;5068846;28;20016;-79
2021/04/08 13:42:50;;;;;;;;;;;19.90;99.90;;;;;;5054615;28;19927;-78
2021/04/08 13:45:16;;;;;;;;;;;19.90;99.90;;;;;;5054426;28;19967;-78
2021/04/08 13:47:43;;;;;;;;;;;19.80;99.90;;;;;;5054029;28;19917;-81
2021/04/08 13:50:10;;;;;;;;;;;19.80;99.90;;;;;;5050349;28;19921;-81
2021/04/08 13:52:37;;;;;;;;;;;19.80;99.90;;;;;;5049462;28;19956;-81
2021/04/08 13:55:05;;;;;;;;;;;19.90;99.90;;;;;;5041248;28;19981;-81
2021/04/08 13:57:32;;;;;;;;;;;19.80;99.90;;;;;;5043493;28;19920;-83
2021/04/08 14:00:01;;;;;;;;;;;19.80;99.90;;;;;;5045266;28;19987;-83
2021/04/08 14:02:29;;;;;;;;;;;19.90;99.90;;;;;;5045924;28;20429;-80
2021/04/08 14:04:56;;;;;;;;;;;19.90;99.90;;;;;;5040918;28;19920;-79
2021/04/08 14:07:24;;;;;;;;;;;19.90;99.90;;;;;;5034376;28;19916;-79
2021/04/08 14:09:50;;;;;;;;;;;19.80;99.90;;;;;;5045603;28;19922;-81
2021/04/08 14:12:19;;;;;;;;;;;19.80;99.90;;;;;;5049436;28;20012;-79
2021/04/08 14:14:45;;;;;;;;;;;19.80;99.90;;;;;;5051063;28;20328;-80
2021/04/08 14:17:12;;;;;;;;;;;19.80;99.90;;;;;;5049346;28;19920;-82
2021/04/08 14:19:39;;;;;;;;;;;19.80;99.90;;;;;;5043954;28;20283;-80
2021/04/08 14:22:07;;;;;;;;;;;19.80;99.90;;;;;;5052798;28;19921;-80
2021/04/08 14:24:34;;;;;;;;;;;19.80;99.90;;;;;;5049178;28;20414;-81